createdAt,value
2018-07-23T00:02:18.522Z,19.90
2018-07-23T00:04:47.425Z,19.80
2018-07-23T00:07:16.236Z,19.80
2018-07-23T00:09:44.492Z,19.80
2018-07-23T00:12:12.854Z,19.70
2018-07-23T00:14:41.004Z,19.70
2018-07-23T00:17:09.252Z,19.70
2018-07-23T00:22:06.608Z,19.60
2018-07-23T00:24:35.469Z,19.60
2018-07-23T00:27:03.594Z,19.60
2018-07-23T00:32:00.101Z,19.50
2018-07-23T00:34:28.358Z,19.50
2018-07-23T00:36:56.594Z,19.50
2018-07-23T00:39:24.890Z,19.50
2018-07-23T00:41:53.184Z,19.50
2018-07-23T00:44:21.410Z,19.40
2018-07-23T00:46:49.562Z,19.40
2018-07-23T00:49:18.717Z,19.30
2018-07-23T00:51:46.956Z,19.30
2018-07-23T00:54:15.354Z,19.30
2018-07-23T00:59:12.651Z,19.30
2018-07-23T01:01:41.342Z,19.30
2018-07-23T01:04:09.596Z,19.30
2018-07-23T01:09:08.886Z,19.30
2018-07-23T01:11:37.096Z,19.40
2018-07-23T01:14:05.372Z,19.30
2018-07-23T01:16:34.124Z,19.30
2018-07-23T01:19:02.309Z,19.30
2018-07-23T01:21:30.578Z,19.30
2018-07-23T01:23:59.168Z,19.30
2018-07-23T01:26:28.076Z,19.30
2018-07-23T01:28:56.345Z,19.20
2018-07-23T01:33:53.303Z,19.20
2018-07-23T01:36:21.491Z,19.20
2018-07-23T01:41:18.441Z,19.20
2018-07-23T01:43:48.015Z,19.20
2018-07-23T01:46:17.365Z,19.20
2018-07-23T01:51:16.117Z,19.20
2018-07-23T01:53:44.213Z,19.20
2018-07-23T01:56:14.313Z,19.20
2018-07-23T01:58:42.533Z,19.20
2018-07-23T02:03:41.983Z,19.20
2018-07-23T02:06:10.515Z,19.20
2018-07-23T02:08:38.785Z,19.20
2018-07-23T02:11:07.158Z,19.20
2018-07-23T02:13:37.702Z,19.20
2018-07-23T02:16:07.601Z,19.20
2018-07-23T02:18:35.886Z,19.20
2018-07-23T02:21:04.840Z,19.10
2018-07-23T02:23:33.190Z,19.10
2018-07-23T02:28:29.332Z,19.00
2018-07-23T02:30:57.508Z,19.00
2018-07-23T02:35:55.272Z,18.90
2018-07-23T02:38:23.670Z,18.90
2018-07-23T02:43:21.290Z,18.90
2018-07-23T02:45:49.777Z,18.90
2018-07-23T02:48:18.034Z,18.90
2018-07-23T02:50:46.760Z,19.00
2018-07-23T02:53:15.819Z,18.90
2018-07-23T02:55:44.186Z,19.00
2018-07-23T02:58:12.636Z,19.00
2018-07-23T03:00:40.773Z,19.10
2018-07-23T03:03:10.499Z,19.10
2018-07-23T03:05:38.731Z,19.10
2018-07-23T03:08:07.559Z,19.20
2018-07-23T03:10:35.834Z,19.10
2018-07-23T03:13:04.009Z,19.10
2018-07-23T03:15:32.189Z,19.00
2018-07-23T03:18:00.401Z,19.00
2018-07-23T03:22:56.741Z,18.90
2018-07-23T03:25:25.041Z,18.90
2018-07-23T03:30:21.682Z,18.80
2018-07-23T03:35:18.927Z,18.80
2018-07-23T03:37:47.455Z,18.80
2018-07-23T03:42:43.877Z,18.70
2018-07-23T03:45:12.154Z,18.70
2018-07-23T03:47:40.388Z,18.60
2018-07-23T03:50:08.666Z,18.60
2018-07-23T03:52:36.889Z,18.50
2018-07-23T03:57:33.318Z,18.50
2018-07-23T04:00:01.657Z,18.40
2018-07-23T04:02:29.876Z,18.40
2018-07-23T04:04:58.118Z,18.40
2018-07-23T04:07:27.216Z,18.40
2018-07-23T04:09:55.395Z,18.40
2018-07-23T04:12:23.548Z,18.50
2018-07-23T04:14:51.738Z,18.50
2018-07-23T04:17:20.001Z,18.50
2018-07-23T04:19:49.131Z,18.50
2018-07-23T04:22:17.216Z,18.60
2018-07-23T04:24:45.544Z,18.70
2018-07-23T04:27:13.877Z,18.70
2018-07-23T04:29:42.089Z,18.90
2018-07-23T04:32:10.428Z,18.90
2018-07-23T04:34:38.592Z,19.00
2018-07-23T04:37:06.877Z,19.00
2018-07-23T04:39:35.096Z,19.10
2018-07-23T04:42:03.311Z,19.00
2018-07-23T04:44:31.592Z,19.10
2018-07-23T04:46:59.937Z,19.10
2018-07-23T04:49:28.884Z,19.10
2018-07-23T04:51:57.165Z,19.10
2018-07-23T04:54:25.413Z,19.10
2018-07-23T04:56:53.585Z,19.20
2018-07-23T04:59:21.950Z,19.20
2018-07-23T05:01:51.055Z,19.30
2018-07-23T05:04:19.317Z,19.30
2018-07-23T05:06:47.472Z,19.40
2018-07-23T05:09:16.205Z,19.40
2018-07-23T05:11:44.389Z,19.50
2018-07-23T05:14:12.658Z,19.60
2018-07-23T05:16:40.875Z,19.60
2018-07-23T05:21:37.673Z,19.80
2018-07-23T05:24:06.131Z,20.00
2018-07-23T05:26:34.265Z,20.30
2018-07-23T05:29:02.618Z,20.60
2018-07-23T05:31:30.887Z,20.90
2018-07-23T05:33:59.526Z,21.10
2018-07-23T05:38:55.673Z,21.80
2018-07-23T05:43:51.889Z,22.40
2018-07-23T05:46:20.377Z,22.80
2018-07-23T05:48:48.707Z,23.00
2018-07-23T05:51:17.085Z,23.50
2018-07-23T05:53:45.200Z,23.70
2018-07-23T05:56:13.325Z,24.00
2018-07-23T05:58:41.592Z,24.20
2018-07-23T06:01:10.218Z,24.70
2018-07-23T06:03:38.512Z,25.00
2018-07-23T06:06:06.652Z,25.50
2018-07-23T06:08:34.767Z,25.80
2018-07-23T06:11:03.004Z,26.10
2018-07-23T06:13:31.286Z,26.40
2018-07-23T06:16:00.247Z,26.60
2018-07-23T06:18:28.410Z,26.60
2018-07-23T06:23:24.756Z,27.40
2018-07-23T06:25:53.006Z,27.50
2018-07-23T06:28:21.218Z,27.80
2018-07-23T06:35:45.964Z,28.70
2018-07-23T06:38:14.136Z,29.00
2018-07-23T06:40:42.529Z,29.10
2018-07-23T06:43:10.733Z,29.70
2018-07-23T06:45:38.888Z,30.30
2018-07-23T06:48:07.328Z,30.60
2018-07-23T06:53:03.857Z,30.00
2018-07-23T06:55:32.052Z,29.20
2018-07-23T07:00:28.316Z,28.00
2018-07-23T07:02:56.426Z,27.10
2018-07-23T07:05:24.599Z,26.10
2018-07-23T07:07:52.797Z,25.90
2018-07-23T07:10:20.936Z,25.90
2018-07-23T07:12:49.312Z,25.70
2018-07-23T07:15:17.486Z,25.70
2018-07-23T07:17:45.667Z,25.80
2018-07-23T07:20:14.015Z,25.80
2018-07-23T07:25:10.252Z,25.30
2018-07-23T07:30:07.107Z,25.10
2018-07-23T07:32:35.327Z,24.90
2018-07-23T07:35:03.840Z,24.90
2018-07-23T07:37:32.022Z,25.20
2018-07-23T07:40:00.302Z,25.30
2018-07-23T07:42:28.420Z,25.40
2018-07-23T07:44:56.616Z,25.30
2018-07-23T07:47:24.812Z,25.30
2018-07-23T07:49:53.071Z,25.40
2018-07-23T07:52:21.205Z,25.90
2018-07-23T07:54:49.440Z,26.40
2018-07-23T07:57:17.604Z,27.00
2018-07-23T07:59:45.831Z,27.00
2018-07-23T08:02:14.049Z,27.20
2018-07-23T08:04:42.308Z,27.80
2018-07-23T08:07:10.593Z,28.10
2018-07-23T08:09:38.784Z,29.20
2018-07-23T08:12:07.228Z,30.30
2018-07-23T08:14:35.399Z,30.50
2018-07-23T08:19:31.876Z,30.20
2018-07-23T08:22:00.679Z,31.10
2018-07-23T08:24:28.807Z,31.60
2018-07-23T08:26:56.993Z,31.30
2018-07-23T08:29:25.301Z,30.70
2018-07-23T08:31:53.521Z,31.30
2018-07-23T08:34:21.803Z,32.40
2018-07-23T08:36:50.019Z,31.80
2018-07-23T08:39:19.674Z,31.30
2018-07-23T08:41:47.873Z,31.00
2018-07-23T08:44:16.229Z,31.30
2018-07-23T08:46:44.383Z,32.60
2018-07-23T08:49:12.479Z,34.10
2018-07-23T08:51:40.589Z,34.00
2018-07-23T08:54:08.769Z,33.00
2018-07-23T08:56:37.327Z,33.00
2018-07-23T08:59:05.555Z,32.50
2018-07-23T09:01:33.719Z,33.90
2018-07-23T09:04:01.865Z,35.30
2018-07-23T09:06:29.986Z,34.80
2018-07-23T09:08:58.096Z,33.20
2018-07-23T09:13:54.248Z,32.30
2018-07-23T09:16:22.426Z,32.10
2018-07-23T09:18:50.696Z,33.10
2018-07-23T09:23:47.406Z,35.00
2018-07-23T09:26:16.529Z,34.70
2018-07-23T09:28:45.188Z,35.30
2018-07-23T09:31:13.460Z,36.10
2018-07-23T09:33:41.708Z,37.50
2018-07-23T09:36:09.908Z,39.20
2018-07-23T09:38:38.220Z,38.70
2018-07-23T09:41:07.554Z,40.20
2018-07-23T09:43:35.789Z,40.80
2018-07-23T09:46:04.355Z,41.40
2018-07-23T09:48:32.522Z,42.70
2018-07-23T09:51:00.707Z,43.60
2018-07-23T09:53:28.986Z,43.10
2018-07-23T09:55:57.952Z,42.70
2018-07-23T09:58:26.078Z,42.90
2018-07-23T10:00:56.360Z,43.20
2018-07-23T10:03:24.682Z,43.40
2018-07-23T10:05:52.956Z,43.80
2018-07-23T10:08:21.332Z,44.40
2018-07-23T10:10:49.537Z,44.50
2018-07-23T10:13:17.675Z,44.70
2018-07-23T10:15:45.904Z,44.40
2018-07-23T10:18:14.050Z,42.60
2018-07-23T10:25:38.626Z,42.80
2018-07-23T10:28:06.891Z,43.50
2018-07-23T10:30:35.022Z,44.10
2018-07-23T10:33:03.280Z,43.20
2018-07-23T10:35:31.507Z,44.60
2018-07-23T10:37:59.729Z,45.90
2018-07-23T10:40:27.866Z,45.80
2018-07-23T10:42:56.024Z,46.20
2018-07-23T10:45:24.275Z,46.20
2018-07-23T10:50:20.421Z,46.00
2018-07-23T10:52:48.553Z,46.60
2018-07-23T10:55:16.827Z,47.60
2018-07-23T10:57:44.965Z,47.40
2018-07-23T11:00:13.211Z,47.80
2018-07-23T11:02:41.365Z,48.10
2018-07-23T11:05:10.209Z,48.20
2018-07-23T11:07:38.494Z,48.10
2018-07-23T11:10:07.617Z,47.80
2018-07-23T11:12:36.224Z,46.90
2018-07-23T11:15:06.396Z,46.00
2018-07-23T11:17:35.461Z,45.50
2018-07-23T11:22:32.302Z,44.70
2018-07-23T11:25:37.950Z,44.30
2018-07-23T11:27:28.864Z,44.20
2018-07-23T11:29:57.027Z,44.20
2018-07-23T11:32:25.204Z,45.90
2018-07-23T11:34:53.442Z,47.10
2018-07-23T11:37:21.551Z,47.00
2018-07-23T11:39:50.684Z,46.60
2018-07-23T11:44:47.198Z,47.20
2018-07-23T11:47:15.437Z,47.00
2018-07-23T11:52:14.362Z,45.50
2018-07-23T11:57:08.153Z,41.20
2018-07-23T11:59:36.428Z,42.20
2018-07-23T12:02:04.732Z,43.70
2018-07-23T12:04:32.986Z,44.90
2018-07-23T12:07:01.147Z,45.50
2018-07-23T12:09:30.119Z,46.60
2018-07-23T12:11:58.384Z,47.40
2018-07-23T12:14:26.515Z,48.20
2018-07-23T12:16:54.729Z,47.70
2018-07-23T12:21:51.212Z,46.60
2018-07-23T12:24:19.450Z,43.80
2018-07-23T12:26:47.697Z,41.80
2018-07-23T12:29:15.836Z,41.80
2018-07-23T12:31:44.190Z,42.00
2018-07-23T12:34:12.395Z,42.00
2018-07-23T12:36:40.574Z,40.70
2018-07-23T12:39:10.788Z,39.70
2018-07-23T12:41:39.155Z,40.80
2018-07-23T12:44:07.840Z,41.60
2018-07-23T12:49:05.576Z,41.70
2018-07-23T12:51:34.422Z,40.80
2018-07-23T12:54:03.715Z,41.80
2018-07-23T12:56:32.483Z,41.60
2018-07-23T13:01:30.515Z,43.90
2018-07-23T13:03:58.689Z,43.70
2018-07-23T13:06:26.908Z,44.30
2018-07-23T13:08:55.296Z,45.10
2018-07-23T13:11:24.026Z,45.30
2018-07-23T13:13:52.921Z,44.70
2018-07-23T13:16:21.221Z,42.90
2018-07-23T13:18:50.093Z,41.30
2018-07-23T13:21:19.760Z,39.70
2018-07-23T13:23:48.003Z,38.00
2018-07-23T13:26:17.508Z,37.40
2018-07-23T13:28:46.325Z,37.10
2018-07-23T13:31:15.916Z,38.00
2018-07-23T13:33:44.132Z,38.70
2018-07-23T13:36:12.958Z,38.50
2018-07-23T13:38:41.252Z,38.10
2018-07-23T13:41:09.536Z,38.90
2018-07-23T13:43:37.778Z,38.70
2018-07-23T13:46:06.057Z,37.70
2018-07-23T13:48:34.219Z,37.20
2018-07-23T13:51:02.606Z,36.80
2018-07-23T13:53:30.826Z,37.60
2018-07-23T13:55:59.244Z,38.80
2018-07-23T13:58:28.038Z,39.90
2018-07-23T14:00:56.362Z,40.30
2018-07-23T14:03:25.480Z,39.90
2018-07-23T14:05:54.570Z,38.40
2018-07-23T14:08:23.004Z,36.70
2018-07-23T14:10:51.235Z,35.80
2018-07-23T14:15:47.670Z,35.10
2018-07-23T14:18:16.029Z,34.70
2018-07-23T14:20:44.178Z,34.40
2018-07-23T14:23:12.405Z,34.00
2018-07-23T14:25:40.616Z,33.70
2018-07-23T14:28:08.957Z,33.20
2018-07-23T14:30:37.018Z,33.00
2018-07-23T14:33:05.464Z,33.20
2018-07-23T14:35:33.533Z,33.50
2018-07-23T14:38:01.637Z,33.60
2018-07-23T14:40:29.726Z,33.30
2018-07-23T14:42:59.384Z,33.10
2018-07-23T14:45:28.098Z,33.10
2018-07-23T14:47:57.182Z,32.90
2018-07-23T14:50:25.477Z,32.90
2018-07-23T14:52:53.698Z,33.10
2018-07-23T14:57:51.694Z,32.90
2018-07-23T15:00:19.884Z,32.60
2018-07-23T15:02:48.123Z,32.30
2018-07-23T15:05:16.889Z,31.90
2018-07-23T15:07:45.122Z,31.80
2018-07-23T15:10:14.142Z,32.00
2018-07-23T15:12:43.138Z,32.20
2018-07-23T15:15:11.321Z,32.30
2018-07-23T15:17:39.586Z,32.10
2018-07-23T15:20:07.810Z,32.10
2018-07-23T15:25:05.681Z,31.90
2018-07-23T15:27:33.851Z,31.90
2018-07-23T15:30:02.620Z,31.80
2018-07-23T15:32:30.632Z,31.80
2018-07-23T15:34:58.710Z,32.00
2018-07-23T15:39:55.927Z,32.20
2018-07-23T15:42:24.166Z,32.10
2018-07-23T15:44:52.517Z,32.20
2018-07-23T15:47:20.646Z,32.10
2018-07-23T15:49:48.880Z,32.00
2018-07-23T15:54:46.126Z,32.00
2018-07-23T15:57:14.518Z,31.80
2018-07-23T15:59:42.804Z,31.60
2018-07-23T16:04:39.146Z,31.30
2018-07-23T16:07:07.300Z,31.40
2018-07-23T16:09:35.599Z,31.60
2018-07-23T16:12:03.808Z,31.70
2018-07-23T16:14:32.109Z,31.70
2018-07-23T16:17:00.192Z,31.60
2018-07-23T16:19:28.253Z,31.40
2018-07-23T16:21:56.484Z,31.30
2018-07-23T16:24:24.592Z,31.10
2018-07-23T16:26:52.958Z,30.80
2018-07-23T16:29:21.132Z,30.80
2018-07-23T16:31:49.298Z,30.80
2018-07-23T16:34:17.450Z,30.70
2018-07-23T16:36:45.602Z,30.80
2018-07-23T16:39:14.110Z,31.00
2018-07-23T16:44:10.754Z,30.90
2018-07-23T16:46:38.973Z,30.80
2018-07-23T16:51:35.375Z,30.40
2018-07-23T16:54:03.639Z,30.40
2018-07-23T16:56:31.942Z,30.20
2018-07-23T16:59:00.015Z,30.30
2018-07-23T17:03:56.193Z,30.10
2018-07-23T17:06:24.722Z,30.10
2018-07-23T17:08:52.934Z,30.10
2018-07-23T17:11:21.744Z,30.10
2018-07-23T17:13:50.030Z,30.10
2018-07-23T17:16:18.332Z,30.10
2018-07-23T17:18:46.550Z,29.90
2018-07-23T17:23:42.999Z,29.70
2018-07-23T17:26:11.953Z,29.70
2018-07-23T17:28:40.188Z,29.50
2018-07-23T17:31:08.892Z,29.40
2018-07-23T17:33:38.673Z,29.40
2018-07-23T17:38:34.964Z,29.20
2018-07-23T17:41:03.188Z,29.20
2018-07-23T17:43:31.457Z,29.10
2018-07-23T17:46:00.621Z,29.10
2018-07-23T17:48:28.797Z,29.10
2018-07-23T17:50:56.957Z,29.00
2018-07-23T17:53:25.051Z,28.90
2018-07-23T17:55:53.593Z,28.80
2018-07-23T17:58:21.874Z,28.70
2018-07-23T18:00:50.055Z,28.60
2018-07-23T18:03:18.386Z,28.50
2018-07-23T18:05:46.672Z,28.50
2018-07-23T18:10:43.255Z,28.40
2018-07-23T18:13:11.406Z,28.30
2018-07-23T18:18:07.909Z,28.20
2018-07-23T18:20:36.138Z,28.00
2018-07-23T18:25:32.310Z,28.00
2018-07-23T18:28:00.554Z,27.90
2018-07-23T18:35:25.011Z,27.70
2018-07-23T18:37:53.478Z,27.60
2018-07-23T18:40:21.589Z,27.50
2018-07-23T18:42:49.721Z,27.40
2018-07-23T18:45:17.893Z,27.30
2018-07-23T18:50:14.180Z,27.10
2018-07-23T18:52:42.302Z,27.10
2018-07-23T19:00:07.826Z,26.90
2018-07-23T19:02:35.983Z,26.80
2018-07-23T19:05:04.548Z,26.70
2018-07-23T19:07:32.639Z,26.70
2018-07-23T19:12:29.144Z,26.50
2018-07-23T19:14:57.291Z,26.40
2018-07-23T19:17:25.517Z,26.30
2018-07-23T19:19:53.634Z,26.30
2018-07-23T19:22:21.781Z,26.20
2018-07-23T19:24:50.057Z,26.10
2018-07-23T19:27:19.284Z,26.10
2018-07-23T19:29:47.421Z,26.00
2018-07-23T19:32:15.610Z,25.90
2018-07-23T19:34:43.899Z,25.90
2018-07-23T19:37:12.041Z,25.80
2018-07-23T19:39:40.854Z,25.70
2018-07-23T19:42:09.703Z,25.70
2018-07-23T19:47:06.726Z,25.50
2018-07-23T19:49:34.987Z,25.50
2018-07-23T19:52:03.144Z,25.40
2018-07-23T19:54:31.408Z,25.30
2018-07-23T19:57:00.334Z,25.30
2018-07-23T19:59:28.795Z,25.20
2018-07-23T20:01:57.026Z,25.20
2018-07-23T20:04:25.184Z,25.10
2018-07-23T20:06:54.046Z,25.00
2018-07-23T20:09:23.163Z,25.00
2018-07-23T20:11:51.931Z,24.90
2018-07-23T20:14:20.009Z,24.90
2018-07-23T20:16:48.106Z,24.90
2018-07-23T20:19:16.890Z,24.80
2018-07-23T20:21:45.910Z,24.80
2018-07-23T20:24:14.092Z,24.70
2018-07-23T20:26:43.052Z,24.60
2018-07-23T20:29:11.488Z,24.60
2018-07-23T20:31:41.082Z,24.60
2018-07-23T20:34:09.226Z,24.50
2018-07-23T20:36:37.338Z,24.50
2018-07-23T20:39:07.326Z,24.40
2018-07-23T20:41:36.930Z,24.40
2018-07-23T20:44:05.314Z,24.30
2018-07-23T20:49:01.849Z,24.30
2018-07-23T20:51:30.148Z,24.10
2018-07-23T20:53:58.938Z,24.10
2018-07-23T21:01:24.105Z,23.90
2018-07-23T21:03:52.355Z,23.80
2018-07-23T21:06:20.456Z,23.80
2018-07-23T21:08:48.803Z,23.70
2018-07-23T21:13:45.017Z,23.60
2018-07-23T21:16:13.275Z,23.60
2018-07-23T21:18:41.477Z,23.50
2018-07-23T21:21:09.719Z,23.50
2018-07-23T21:23:38.066Z,23.40
2018-07-23T21:28:34.459Z,23.30
2018-07-23T21:31:03.016Z,23.30
2018-07-23T21:33:31.172Z,23.30
2018-07-23T21:38:27.526Z,23.20
2018-07-23T21:43:23.999Z,23.10
2018-07-23T21:45:52.620Z,23.10
2018-07-23T21:48:20.731Z,23.10
2018-07-23T21:53:16.832Z,22.90
2018-07-23T21:58:13.034Z,22.90
2018-07-23T22:00:41.592Z,22.90
2018-07-23T22:03:13.533Z,22.80
2018-07-23T22:05:41.733Z,22.80
2018-07-23T22:10:42.952Z,22.70
2018-07-23T22:13:11.174Z,22.70
2018-07-23T22:15:39.411Z,22.70
2018-07-23T22:18:08.197Z,22.70
2018-07-23T22:20:36.706Z,22.70
2018-07-23T22:23:05.290Z,22.60
2018-07-23T22:25:34.272Z,22.60
2018-07-23T22:28:03.434Z,22.60
2018-07-23T22:30:32.424Z,22.60
2018-07-23T22:33:00.630Z,22.50
2018-07-23T22:35:28.867Z,22.50
2018-07-23T22:37:57.154Z,22.50
2018-07-23T22:40:26.747Z,22.40
2018-07-23T22:42:55.053Z,22.40
2018-07-23T22:45:24.372Z,22.40
2018-07-23T22:47:52.628Z,22.30
2018-07-23T22:50:20.854Z,22.30
2018-07-23T22:52:48.992Z,22.30
2018-07-23T22:55:18.224Z,22.20
2018-07-23T22:57:46.424Z,22.20
2018-07-23T23:00:15.923Z,22.20
2018-07-23T23:05:14.467Z,22.10
2018-07-23T23:07:44.774Z,22.00
2018-07-23T23:10:12.725Z,21.90
2018-07-23T23:12:40.814Z,21.90
2018-07-23T23:15:09.135Z,21.90
2018-07-23T23:17:38.245Z,21.90
2018-07-23T23:20:06.356Z,21.80
2018-07-23T23:22:34.425Z,21.80
2018-07-23T23:25:02.899Z,21.70
2018-07-23T23:27:31.670Z,21.70
2018-07-23T23:32:28.777Z,21.70
2018-07-23T23:34:56.970Z,21.60
2018-07-23T23:37:27.175Z,21.60
2018-07-23T23:39:55.596Z,21.60
2018-07-23T23:42:23.946Z,21.60
2018-07-23T23:44:52.477Z,21.60
2018-07-23T23:49:49.222Z,21.50
2018-07-23T23:54:45.518Z,21.40
2018-07-23T23:57:13.782Z,21.30
2018-07-23T23:59:43.684Z,21.30
